Terminal Aerodrome Forecast
Issued by NWS Tiyan, Guam

Home | Current Version | Previous Version | Text Only | Print | Product List | Glossary On
Versions: 1 2 3 4 5 6 7 8 9 10 11 12 13 14 15 16 17 18 19 20 21 22 23 24 25 26 27 28 29 30 31 32
000
FTPQ31 PGUM 260100 AAA
TAFPQ
TAF AMD
PGUM 260101Z 2601/2706 22009KT 6SM -RA SCT012 BKN030 BKN120
      TEMPO 2601/2603 3SM SHRA SCT009 OVC030
     FM260400 21012KT P6SM VCSH SCT015 SCT030 BKN120
     FM261100 23013KT 6SM SHRA SCT012 BKN030 OVC120=

USA.gov is the U.S. government's official web portal to all federal, state and local government web resources and services.